sensor_id;sensor_type;location;lat;lon;timestamp;temperature;humidity
10312;DHT22;5201;48.776;9.128;2022-11-11T00:01:25;8.90;99.90
10312;DHT22;5201;48.776;9.128;2022-11-11T00:03:53;9.00;99.90
10312;DHT22;5201;48.776;9.128;2022-11-11T00:06:19;9.10;99.90
10312;DHT22;5201;48.776;9.128;2022-11-11T00:08:47;9.40;99.90
10312;DHT22;5201;48.776;9.128;2022-11-11T00:11:13;9.60;99.90
10312;DHT22;5201;48.776;9.128;2022-11-11T00:13:40;9.60;99.90
10312;DHT22;5201;48.776;9.128;2022-11-11T00:16:16;9.60;99.90
10312;DHT22;5201;48.776;9.128;2022-11-11T00:18:43;9.30;99.90
10312;DHT22;5201;48.776;9.128;2022-11-11T00:21:28;8.90;99.90
10312;DHT22;5201;48.776;9.128;2022-11-11T00:27:04;9.10;99.90
10312;DHT22;5201;48.776;9.128;2022-11-11T00:29:30;9.30;99.90
10312;DHT22;5201;48.776;9.128;2022-11-11T00:31:56;9.40;99.90
10312;DHT22;5201;48.776;9.128;2022-11-11T00:34:40;9.50;99.90
10312;DHT22;5201;48.776;9.128;2022-11-11T00:37:25;9.50;99.90
10312;DHT22;5201;48.776;9.128;2022-11-11T00:39:51;9.50;99.90
10312;DHT22;5201;48.776;9.128;2022-11-11T00:42:16;9.60;99.90
10312;DHT22;5201;48.776;9.128;2022-11-11T00:44:42;9.50;99.90
10312;DHT22;5201;48.776;9.128;2022-11-11T00:47:08;9.50;99.90
10312;DHT22;5201;48.776;9.128;2022-11-11T00:49:53;9.60;99.90
10312;DHT22;5201;48.776;9.128;2022-11-11T00:52:37;9.50;99.90
10312;DHT22;5201;48.776;9.128;2022-11-11T00:55:02;9.60;99.90
10312;DHT22;5201;48.776;9.128;2022-11-11T00:57:28;9.60;99.90
10312;DHT22;5201;48.776;9.128;2022-11-11T00:59:54;9.50;99.90
10312;DHT22;5201;48.776;9.128;2022-11-11T01:02:19;9.40;99.90
10312;DHT22;5201;48.776;9.128;2022-11-11T01:04:45;9.50;99.90
10312;DHT22;5201;48.776;9.128;2022-11-11T01:07:10;9.10;99.90
10312;DHT22;5201;48.776;9.128;2022-11-11T01:09:36;9.20;99.90
10312;DHT22;5201;48.776;9.128;2022-11-11T01:12:01;9.40;99.90
10312;DHT22;5201;48.776;9.128;2022-11-11T01:14:27;9.50;99.90
10312;DHT22;5201;48.776;9.128;2022-11-11T01:16:52;9.30;99.90
10312;DHT22;5201;48.776;9.128;2022-11-11T01:19:18;9.20;99.90
10312;DHT22;5201;48.776;9.128;2022-11-11T01:21:43;9.00;99.90
10312;DHT22;5201;48.776;9.128;2022-11-11T01:24:09;8.90;99.90
10312;DHT22;5201;48.776;9.128;2022-11-11T01:26:35;8.90;99.90
10312;DHT22;5201;48.776;9.128;2022-11-11T01:29:00;8.80;99.90
10312;DHT22;5201;48.776;9.128;2022-11-11T01:31:26;8.80;99.90
10312;DHT22;5201;48.776;9.128;2022-11-11T01:33:51;8.90;99.90
10312;DHT22;5201;48.776;9.128;2022-11-11T01:36:19;9.20;99.90
10312;DHT22;5201;48.776;9.128;2022-11-11T01:39:12;9.30;99.90
10312;DHT22;5201;48.776;9.128;2022-11-11T01:41:37;9.40;99.90
10312;DHT22;5201;48.776;9.128;2022-11-11T01:44:19;9.40;99.90
10312;DHT22;5201;48.776;9.128;2022-11-11T01:47:04;9.40;99.90
10312;DHT22;5201;48.776;9.128;2022-11-11T01:49:41;9.10;99.90
10312;DHT22;5201;48.776;9.128;2022-11-11T01:52:30;8.90;99.90
10312;DHT22;5201;48.776;9.128;2022-11-11T01:55:16;9.00;99.90
10312;DHT22;5201;48.776;9.128;2022-11-11T02:00:15;9.30;99.90
10312;DHT22;5201;48.776;9.128;2022-11-11T02:05:19;9.30;99.90
10312;DHT22;5201;48.776;9.128;2022-11-11T02:08:09;9.20;99.90
10312;DHT22;5201;48.776;9.128;2022-11-11T02:10:38;8.80;99.90
10312;DHT22;5201;48.776;9.128;2022-11-11T02:13:08;8.30;99.90
10312;DHT22;5201;48.776;9.128;2022-11-11T02:15:54;8.20;99.90
10312;DHT22;5201;48.776;9.128;2022-11-11T02:18:20;8.20;99.90
10312;DHT22;5201;48.776;9.128;2022-11-11T02:20:46;8.30;99.90
10312;DHT22;5201;48.776;9.128;2022-11-11T02:23:13;8.40;99.90
10312;DHT22;5201;48.776;9.128;2022-11-11T02:25:43;8.30;99.90
10312;DHT22;5201;48.776;9.128;2022-11-11T02:28:11;8.30;99.90
10312;DHT22;5201;48.776;9.128;2022-11-11T02:30:37;8.40;99.90
10312;DHT22;5201;48.776;9.128;2022-11-11T02:33:03;8.80;99.90
10312;DHT22;5201;48.776;9.128;2022-11-11T02:35:32;9.10;99.90
10312;DHT22;5201;48.776;9.128;2022-11-11T02:38:00;9.40;99.90
10312;DHT22;5201;48.776;9.128;2022-11-11T02:40:38;9.30;99.90
10312;DHT22;5201;48.776;9.128;2022-11-11T02:43:24;9.10;99.90
10312;DHT22;5201;48.776;9.128;2022-11-11T02:45:49;9.40;99.90
10312;DHT22;5201;48.776;9.128;2022-11-11T02:48:15;9.50;99.90
10312;DHT22;5201;48.776;9.128;2022-11-11T02:50:40;9.50;99.90
10312;DHT22;5201;48.776;9.128;2022-11-11T02:53:06;9.20;99.90
10312;DHT22;5201;48.776;9.128;2022-11-11T02:55:32;8.90;99.90
10312;DHT22;5201;48.776;9.128;2022-11-11T02:57:57;9.00;99.90
10312;DHT22;5201;48.776;9.128;2022-11-11T03:00:23;8.90;99.90
10312;DHT22;5201;48.776;9.128;2022-11-11T03:02:48;9.10;99.90
10312;DHT22;5201;48.776;9.128;2022-11-11T03:05:14;9.30;99.90
10312;DHT22;5201;48.776;9.128;2022-11-11T03:07:40;9.10;99.90
10312;DHT22;5201;48.776;9.128;2022-11-11T03:10:06;9.00;99.90
10312;DHT22;5201;48.776;9.128;2022-11-11T03:12:31;8.90;99.90
10312;DHT22;5201;48.776;9.128;2022-11-11T03:14:57;8.80;99.90
10312;DHT22;5201;48.776;9.128;2022-11-11T03:17:22;9.00;99.90
10312;DHT22;5201;48.776;9.128;2022-11-11T03:20:10;9.10;99.90
10312;DHT22;5201;48.776;9.128;2022-11-11T03:23:15;9.20;99.90
10312;DHT22;5201;48.776;9.128;2022-11-11T03:25:50;8.90;99.90
10312;DHT22;5201;48.776;9.128;2022-11-11T03:28:20;8.80;99.90
10312;DHT22;5201;48.776;9.128;2022-11-11T03:30:47;8.90;99.90
10312;DHT22;5201;48.776;9.128;2022-11-11T03:33:13;8.70;99.90
10312;DHT22;5201;48.776;9.128;2022-11-11T03:35:39;8.50;99.90
10312;DHT22;5201;48.776;9.128;2022-11-11T03:38:07;8.40;99.90
10312;DHT22;5201;48.776;9.128;2022-11-11T03:40:41;8.40;99.90
10312;DHT22;5201;48.776;9.128;2022-11-11T03:43:07;8.30;99.90
10312;DHT22;5201;48.776;9.128;2022-11-11T03:45:33;8.20;99.90
10312;DHT22;5201;48.776;9.128;2022-11-11T03:47:59;8.10;99.90
10312;DHT22;5201;48.776;9.128;2022-11-11T03:50:24;8.00;99.90
10312;DHT22;5201;48.776;9.128;2022-11-11T03:52:50;7.90;99.90
10312;DHT22;5201;48.776;9.128;2022-11-11T03:55:15;8.00;99.90
10312;DHT22;5201;48.776;9.128;2022-11-11T03:57:42;8.10;99.90
10312;DHT22;5201;48.776;9.128;2022-11-11T04:00:10;8.00;99.90
10312;DHT22;5201;48.776;9.128;2022-11-11T04:02:36;8.00;99.90
10312;DHT22;5201;48.776;9.128;2022-11-11T04:05:21;8.40;99.90
10312;DHT22;5201;48.776;9.128;2022-11-11T04:08:10;8.70;99.90
10312;DHT22;5201;48.776;9.128;2022-11-11T04:10:59;8.50;99.90
10312;DHT22;5201;48.776;9.128;2022-11-11T04:13:26;8.40;99.90
10312;DHT22;5201;48.776;9.128;2022-11-11T04:16:11;8.30;99.90
10312;DHT22;5201;48.776;9.128;2022-11-11T04:18:37;8.50;99.90
10312;DHT22;5201;48.776;9.128;2022-11-11T04:21:41;8.60;99.90
10312;DHT22;5201;48.776;9.128;2022-11-11T04:24:15;8.80;99.90
10312;DHT22;5201;48.776;9.128;2022-11-11T04:27:01;9.00;99.90
10312;DHT22;5201;48.776;9.128;2022-11-11T04:29:28;9.00;99.90
10312;DHT22;5201;48.776;9.128;2022-11-11T04:34:39;8.70;99.90
10312;DHT22;5201;48.776;9.128;2022-11-11T04:37:04;8.90;99.90
10312;DHT22;5201;48.776;9.128;2022-11-11T04:39:30;9.00;99.90
10312;DHT22;5201;48.776;9.128;2022-11-11T04:42:14;9.20;99.90
10312;DHT22;5201;48.776;9.128;2022-11-11T04:44:39;9.40;99.90
10312;DHT22;5201;48.776;9.128;2022-11-11T04:47:23;9.30;99.90
10312;DHT22;5201;48.776;9.128;2022-11-11T04:49:49;9.30;99.90
10312;DHT22;5201;48.776;9.128;2022-11-11T04:52:14;9.20;99.90
10312;DHT22;5201;48.776;9.128;2022-11-11T04:54:54;8.90;99.90
10312;DHT22;5201;48.776;9.128;2022-11-11T04:57:43;8.70;99.90
10312;DHT22;5201;48.776;9.128;2022-11-11T05:00:14;8.70;99.90
10312;DHT22;5201;48.776;9.128;2022-11-11T05:02:40;8.50;99.90
10312;DHT22;5201;48.776;9.128;2022-11-11T05:05:25;8.70;99.90
10312;DHT22;5201;48.776;9.128;2022-11-11T05:07:51;8.70;99.90
10312;DHT22;5201;48.776;9.128;2022-11-11T05:10:43;8.50;99.90
10312;DHT22;5201;48.776;9.128;2022-11-11T05:13:08;8.30;99.90
10312;DHT22;5201;48.776;9.128;2022-11-11T05:15:52;8.20;99.90
10312;DHT22;5201;48.776;9.128;2022-11-11T05:18:36;7.90;99.90
10312;DHT22;5201;48.776;9.128;2022-11-11T05:21:24;7.80;99.90
10312;DHT22;5201;48.776;9.128;2022-11-11T05:23:50;7.70;99.90
10312;DHT22;5201;48.776;9.128;2022-11-11T05:26:35;7.60;99.90
10312;DHT22;5201;48.776;9.128;2022-11-11T05:29:01;7.50;99.90
10312;DHT22;5201;48.776;9.128;2022-11-11T05:31:28;7.80;99.90
10312;DHT22;5201;48.776;9.128;2022-11-11T05:33:54;7.80;99.90
10312;DHT22;5201;48.776;9.128;2022-11-11T05:36:19;8.00;99.90
10312;DHT22;5201;48.776;9.128;2022-11-11T05:38:45;8.30;99.90
10312;DHT22;5201;48.776;9.128;2022-11-11T05:41:10;8.20;99.90
10312;DHT22;5201;48.776;9.128;2022-11-11T05:43:36;8.40;99.90
10312;DHT22;5201;48.776;9.128;2022-11-11T05:46:02;8.50;99.90
10312;DHT22;5201;48.776;9.128;2022-11-11T05:48:29;8.50;99.90
10312;DHT22;5201;48.776;9.128;2022-11-11T05:50:57;8.80;99.90
10312;DHT22;5201;48.776;9.128;2022-11-11T05:53:23;8.70;99.90
10312;DHT22;5201;48.776;9.128;2022-11-11T05:55:52;9.40;99.90
10312;DHT22;5201;48.776;9.128;2022-11-11T05:58:20;8.50;99.90
10312;DHT22;5201;48.776;9.128;2022-11-11T06:00:46;8.40;99.90
10312;DHT22;5201;48.776;9.128;2022-11-11T06:03:11;8.30;99.90
10312;DHT22;5201;48.776;9.128;2022-11-11T06:05:37;8.40;99.90
10312;DHT22;5201;48.776;9.128;2022-11-11T06:08:03;8.50;99.90
10312;DHT22;5201;48.776;9.128;2022-11-11T06:10:28;8.60;99.90
10312;DHT22;5201;48.776;9.128;2022-11-11T06:12:58;8.70;99.90
10312;DHT22;5201;48.776;9.128;2022-11-11T06:15:30;8.90;99.90
10312;DHT22;5201;48.776;9.128;2022-11-11T06:17:55;8.80;99.90
10312;DHT22;5201;48.776;9.128;2022-11-11T06:20:21;8.70;99.90
10312;DHT22;5201;48.776;9.128;2022-11-11T06:22:46;8.90;99.90
10312;DHT22;5201;48.776;9.128;2022-11-11T06:25:25;8.90;99.90
10312;DHT22;5201;48.776;9.128;2022-11-11T06:28:10;8.70;99.90
10312;DHT22;5201;48.776;9.128;2022-11-11T06:30:36;8.60;99.90
10312;DHT22;5201;48.776;9.128;2022-11-11T06:33:02;8.20;99.90
10312;DHT22;5201;48.776;9.128;2022-11-11T06:35:28;8.20;99.90
10312;DHT22;5201;48.776;9.128;2022-11-11T06:37:54;8.50;99.90
10312;DHT22;5201;48.776;9.128;2022-11-11T06:40:19;8.80;99.90
10312;DHT22;5201;48.776;9.128;2022-11-11T06:42:45;9.30;99.90
10312;DHT22;5201;48.776;9.128;2022-11-11T06:45:11;8.60;99.90
10312;DHT22;5201;48.776;9.128;2022-11-11T06:47:36;8.70;99.90
10312;DHT22;5201;48.776;9.128;2022-11-11T06:50:02;8.90;99.90
10312;DHT22;5201;48.776;9.128;2022-11-11T06:52:27;8.70;99.90
10312;DHT22;5201;48.776;9.128;2022-11-11T06:54:53;8.80;99.90
10312;DHT22;5201;48.776;9.128;2022-11-11T06:57:21;8.90;99.90
10312;DHT22;5201;48.776;9.128;2022-11-11T06:59:47;8.80;99.90
10312;DHT22;5201;48.776;9.128;2022-11-11T07:02:13;8.80;99.90
10312;DHT22;5201;48.776;9.128;2022-11-11T07:04:38;8.60;99.90
10312;DHT22;5201;48.776;9.128;2022-11-11T07:07:04;9.10;99.90
10312;DHT22;5201;48.776;9.128;2022-11-11T07:09:29;8.90;99.90
10312;DHT22;5201;48.776;9.128;2022-11-11T07:11:55;8.80;99.90
10312;DHT22;5201;48.776;9.128;2022-11-11T07:14:20;8.70;99.90
10312;DHT22;5201;48.776;9.128;2022-11-11T07:16:46;8.60;99.90
10312;DHT22;5201;48.776;9.128;2022-11-11T07:19:11;8.60;99.90
10312;DHT22;5201;48.776;9.128;2022-11-11T07:21:37;8.60;99.90
10312;DHT22;5201;48.776;9.128;2022-11-11T07:24:03;8.50;99.90
10312;DHT22;5201;48.776;9.128;2022-11-11T07:26:28;8.40;99.90
10312;DHT22;5201;48.776;9.128;2022-11-11T07:28:54;8.50;99.90
10312;DHT22;5201;48.776;9.128;2022-11-11T07:31:20;8.70;99.90
10312;DHT22;5201;48.776;9.128;2022-11-11T07:33:46;8.70;99.90
10312;DHT22;5201;48.776;9.128;2022-11-11T07:36:11;8.70;99.90
10312;DHT22;5201;48.776;9.128;2022-11-11T07:38:37;8.70;99.90
10312;DHT22;5201;48.776;9.128;2022-11-11T07:41:03;8.50;99.90
10312;DHT22;5201;48.776;9.128;2022-11-11T07:43:28;8.40;99.90
10312;DHT22;5201;48.776;9.128;2022-11-11T07:45:54;8.40;99.90
10312;DHT22;5201;48.776;9.128;2022-11-11T07:48:20;8.50;99.90
10312;DHT22;5201;48.776;9.128;2022-11-11T07:50:45;8.40;99.90
10312;DHT22;5201;48.776;9.128;2022-11-11T07:53:11;8.40;99.90
10312;DHT22;5201;48.776;9.128;2022-11-11T07:55:36;8.30;99.90
10312;DHT22;5201;48.776;9.128;2022-11-11T07:58:02;8.10;99.90
10312;DHT22;5201;48.776;9.128;2022-11-11T08:00:27;7.90;99.90
10312;DHT22;5201;48.776;9.128;2022-11-11T08:02:53;7.80;99.90
10312;DHT22;5201;48.776;9.128;2022-11-11T08:05:18;7.80;99.90
10312;DHT22;5201;48.776;9.128;2022-11-11T08:07:44;7.80;99.90
10312;DHT22;5201;48.776;9.128;2022-11-11T08:10:10;7.80;99.90
10312;DHT22;5201;48.776;9.128;2022-11-11T08:12:37;7.70;99.90
10312;DHT22;5201;48.776;9.128;2022-11-11T08:15:20;8.10;99.90
10312;DHT22;5201;48.776;9.128;2022-11-11T08:17:46;7.80;99.90
10312;DHT22;5201;48.776;9.128;2022-11-11T08:20:12;7.90;99.90
10312;DHT22;5201;48.776;9.128;2022-11-11T08:22:39;8.10;99.90
10312;DHT22;5201;48.776;9.128;2022-11-11T08:25:07;8.30;99.90
10312;DHT22;5201;48.776;9.128;2022-11-11T08:27:34;8.50;99.90
10312;DHT22;5201;48.776;9.128;2022-11-11T08:30:00;8.50;99.90
10312;DHT22;5201;48.776;9.128;2022-11-11T08:32:25;8.50;99.90
10312;DHT22;5201;48.776;9.128;2022-11-11T08:34:51;8.60;99.90
10312;DHT22;5201;48.776;9.128;2022-11-11T08:37:17;8.60;99.90
10312;DHT22;5201;48.776;9.128;2022-11-11T08:39:42;8.80;99.90
10312;DHT22;5201;48.776;9.128;2022-11-11T08:42:08;8.90;99.90
10312;DHT22;5201;48.776;9.128;2022-11-11T08:44:33;9.00;99.90
10312;DHT22;5201;48.776;9.128;2022-11-11T08:46:59;9.00;99.90
10312;DHT22;5201;48.776;9.128;2022-11-11T08:49:24;9.10;99.90
10312;DHT22;5201;48.776;9.128;2022-11-11T08:51:50;9.20;99.90
10312;DHT22;5201;48.776;9.128;2022-11-11T08:54:16;9.10;99.90
10312;DHT22;5201;48.776;9.128;2022-11-11T08:56:41;9.00;99.90
10312;DHT22;5201;48.776;9.128;2022-11-11T08:59:08;8.90;99.90
10312;DHT22;5201;48.776;9.128;2022-11-11T09:01:34;8.90;99.90
10312;DHT22;5201;48.776;9.128;2022-11-11T09:04:00;9.00;99.90
10312;DHT22;5201;48.776;9.128;2022-11-11T09:06:27;9.10;99.90
10312;DHT22;5201;48.776;9.128;2022-11-11T09:08:52;9.20;99.90
10312;DHT22;5201;48.776;9.128;2022-11-11T09:11:18;9.30;99.90
10312;DHT22;5201;48.776;9.128;2022-11-11T09:13:46;9.40;99.90
10312;DHT22;5201;48.776;9.128;2022-11-11T09:16:12;9.50;99.90
10312;DHT22;5201;48.776;9.128;2022-11-11T09:18:37;9.60;99.90
10312;DHT22;5201;48.776;9.128;2022-11-11T09:21:03;9.70;99.90
10312;DHT22;5201;48.776;9.128;2022-11-11T09:23:29;9.70;99.90
10312;DHT22;5201;48.776;9.128;2022-11-11T09:25:54;9.80;99.90
10312;DHT22;5201;48.776;9.128;2022-11-11T09:28:22;9.80;99.90
10312;DHT22;5201;48.776;9.128;2022-11-11T09:30:48;9.90;99.90
10312;DHT22;5201;48.776;9.128;2022-11-11T09:33:14;10.00;99.90
10312;DHT22;5201;48.776;9.128;2022-11-11T09:35:42;10.10;99.90
10312;DHT22;5201;48.776;9.128;2022-11-11T09:38:08;10.40;99.90
10312;DHT22;5201;48.776;9.128;2022-11-11T09:41:30;10.20;99.90
10312;DHT22;5201;48.776;9.128;2022-11-11T09:43:55;10.30;99.90
10312;DHT22;5201;48.776;9.128;2022-11-11T09:46:44;10.60;99.90
10312;DHT22;5201;48.776;9.128;2022-11-11T09:49:23;10.90;99.90
10312;DHT22;5201;48.776;9.128;2022-11-11T09:52:02;11.00;99.90
10312;DHT22;5201;48.776;9.128;2022-11-11T09:57:21;11.20;99.90
10312;DHT22;5201;48.776;9.128;2022-11-11T09:59:52;11.10;99.90
10312;DHT22;5201;48.776;9.128;2022-11-11T10:05:16;11.00;99.90
10312;DHT22;5201;48.776;9.128;2022-11-11T10:10:28;11.20;99.90
10312;DHT22;5201;48.776;9.128;2022-11-11T10:12:56;11.30;99.90
10312;DHT22;5201;48.776;9.128;2022-11-11T10:15:29;11.90;99.90
10312;DHT22;5201;48.776;9.128;2022-11-11T10:18:21;11.50;99.90
10312;DHT22;5201;48.776;9.128;2022-11-11T10:20:55;12.10;99.90
10312;DHT22;5201;48.776;9.128;2022-11-11T10:23:34;11.60;99.90
10312;DHT22;5201;48.776;9.128;2022-11-11T10:26:11;11.60;99.90
10312;DHT22;5201;48.776;9.128;2022-11-11T10:28:42;11.80;99.90
10312;DHT22;5201;48.776;9.128;2022-11-11T10:31:15;11.90;99.90
10312;DHT22;5201;48.776;9.128;2022-11-11T10:36:19;11.80;99.90
10312;DHT22;5201;48.776;9.128;2022-11-11T10:39:00;11.80;99.90
10312;DHT22;5201;48.776;9.128;2022-11-11T10:41:32;12.10;99.90
10312;DHT22;5201;48.776;9.128;2022-11-11T10:43:59;12.20;99.90
10312;DHT22;5201;48.776;9.128;2022-11-11T10:46:33;12.20;99.90
10312;DHT22;5201;48.776;9.128;2022-11-11T10:49:15;12.30;99.90
10312;DHT22;5201;48.776;9.128;2022-11-11T10:52:07;12.30;99.90
10312;DHT22;5201;48.776;9.128;2022-11-11T10:54:45;12.20;99.90
10312;DHT22;5201;48.776;9.128;2022-11-11T10:57:21;12.20;99.90
10312;DHT22;5201;48.776;9.128;2022-11-11T10:59:58;12.80;99.90
10312;DHT22;5201;48.776;9.128;2022-11-11T11:02:29;12.10;99.90
10312;DHT22;5201;48.776;9.128;2022-11-11T11:07:44;12.10;99.90
10312;DHT22;5201;48.776;9.128;2022-11-11T11:10:15;12.30;99.90
10312;DHT22;5201;48.776;9.128;2022-11-11T11:12:49;12.50;99.90
10312;DHT22;5201;48.776;9.128;2022-11-11T11:15:20;12.50;99.90
10312;DHT22;5201;48.776;9.128;2022-11-11T11:18:06;12.70;99.90
10312;DHT22;5201;48.776;9.128;2022-11-11T11:20:32;12.50;99.90
10312;DHT22;5201;48.776;9.128;2022-11-11T11:22:58;12.50;99.90
10312;DHT22;5201;48.776;9.128;2022-11-11T11:25:26;13.30;99.90
10312;DHT22;5201;48.776;9.128;2022-11-11T11:28:08;14.10;99.90
10312;DHT22;5201;48.776;9.128;2022-11-11T11:30:34;12.40;99.90
10312;DHT22;5201;48.776;9.128;2022-11-11T11:33:07;12.40;99.90
10312;DHT22;5201;48.776;9.128;2022-11-11T11:35:37;12.50;99.90
10312;DHT22;5201;48.776;9.128;2022-11-11T11:38:06;12.40;99.90
10312;DHT22;5201;48.776;9.128;2022-11-11T11:40:46;12.40;99.90
10312;DHT22;5201;48.776;9.128;2022-11-11T11:45:59;12.40;99.90
10312;DHT22;5201;48.776;9.128;2022-11-11T11:51:23;12.50;99.90
10312;DHT22;5201;48.776;9.128;2022-11-11T11:56:45;12.70;99.90
10312;DHT22;5201;48.776;9.128;2022-11-11T12:15:40;13.60;99.90
10312;DHT22;5201;48.776;9.128;2022-11-11T12:20:55;13.20;99.90
10312;DHT22;5201;48.776;9.128;2022-11-11T12:23:59;13.40;99.90
10312;DHT22;5201;48.776;9.128;2022-11-11T12:26:42;13.50;99.90
10312;DHT22;5201;48.776;9.128;2022-11-11T12:35:02;13.50;99.90
10312;DHT22;5201;48.776;9.128;2022-11-11T12:40:26;13.50;99.90
10312;DHT22;5201;48.776;9.128;2022-11-11T12:48:50;13.20;99.90
10312;DHT22;5201;48.776;9.128;2022-11-11T12:56:53;13.20;99.90
10312;DHT22;5201;48.776;9.128;2022-11-11T13:05:21;13.10;99.90
10312;DHT22;5201;48.776;9.128;2022-11-11T13:16:06;13.40;99.90
10312;DHT22;5201;48.776;9.128;2022-11-11T13:18:53;13.50;99.90
10312;DHT22;5201;48.776;9.128;2022-11-11T13:21:35;13.70;99.90
10312;DHT22;5201;48.776;9.128;2022-11-11T13:24:09;13.10;99.90
10312;DHT22;5201;48.776;9.128;2022-11-11T13:26:41;13.10;99.90
10312;DHT22;5201;48.776;9.128;2022-11-11T13:32:14;13.10;99.90
10312;DHT22;5201;48.776;9.128;2022-11-11T13:34:41;13.20;99.90
10312;DHT22;5201;48.776;9.128;2022-11-11T13:37:16;13.60;99.90
10312;DHT22;5201;48.776;9.128;2022-11-11T13:39:46;13.50;99.90
10312;DHT22;5201;48.776;9.128;2022-11-11T13:42:20;13.80;99.90
10312;DHT22;5201;48.776;9.128;2022-11-11T13:44:56;13.50;99.90
10312;DHT22;5201;48.776;9.128;2022-11-11T13:47:26;13.50;99.90
10312;DHT22;5201;48.776;9.128;2022-11-11T13:50:14;13.50;99.90
10312;DHT22;5201;48.776;9.128;2022-11-11T13:53:13;13.50;99.90
10312;DHT22;5201;48.776;9.128;2022-11-11T13:55:42;13.70;99.90
10312;DHT22;5201;48.776;9.128;2022-11-11T13:58:27;13.40;99.90
10312;DHT22;5201;48.776;9.128;2022-11-11T14:00:59;13.30;99.90
10312;DHT22;5201;48.776;9.128;2022-11-11T14:13:53;13.50;99.90
10312;DHT22;5201;48.776;9.128;2022-11-11T14:19:32;13.50;99.90
10312;DHT22;5201;48.776;9.128;2022-11-11T14:22:02;16.40;99.90
10312;DHT22;5201;48.776;9.128;2022-11-11T14:24:43;13.80;99.90
10312;DHT22;5201;48.776;9.128;2022-11-11T14:27:17;13.90;99.90
10312;DHT22;5201;48.776;9.128;2022-11-11T14:29:53;13.60;99.90
10312;DHT22;5201;48.776;9.128;2022-11-11T14:35:24;13.60;99.90
10312;DHT22;5201;48.776;9.128;2022-11-11T14:40:32;13.50;99.90
10312;DHT22;5201;48.776;9.128;2022-11-11T14:42:59;13.50;99.90
10312;DHT22;5201;48.776;9.128;2022-11-11T14:48:50;13.50;99.90
10312;DHT22;5201;48.776;9.128;2022-11-11T14:51:40;13.40;99.90
10312;DHT22;5201;48.776;9.128;2022-11-11T14:54:24;13.80;99.90
10312;DHT22;5201;48.776;9.128;2022-11-11T14:56:59;13.30;99.90
10312;DHT22;5201;48.776;9.128;2022-11-11T14:59:26;13.30;99.90
10312;DHT22;5201;48.776;9.128;2022-11-11T15:01:54;13.30;99.90
10312;DHT22;5201;48.776;9.128;2022-11-11T15:04:20;13.30;99.90
10312;DHT22;5201;48.776;9.128;2022-11-11T15:06:56;13.30;99.90
10312;DHT22;5201;48.776;9.128;2022-11-11T15:12:11;13.30;99.90
10312;DHT22;5201;48.776;9.128;2022-11-11T15:15:09;13.30;99.90
10312;DHT22;5201;48.776;9.128;2022-11-11T15:17:49;13.10;99.90
10312;DHT22;5201;48.776;9.128;2022-11-11T15:26:04;12.70;99.90
10312;DHT22;5201;48.776;9.128;2022-11-11T15:31:34;12.60;99.90
10312;DHT22;5201;48.776;9.128;2022-11-11T15:36:59;12.40;99.90
10312;DHT22;5201;48.776;9.128;2022-11-11T15:39:49;12.40;99.90
10312;DHT22;5201;48.776;9.128;2022-11-11T15:44:47;12.40;99.90
10312;DHT22;5201;48.776;9.128;2022-11-11T15:47:18;12.50;99.90
10312;DHT22;5201;48.776;9.128;2022-11-11T15:49:47;12.60;99.90
10312;DHT22;5201;48.776;9.128;2022-11-11T15:52:30;12.60;99.90
10312;DHT22;5201;48.776;9.128;2022-11-11T15:54:57;12.50;99.90
10312;DHT22;5201;48.776;9.128;2022-11-11T15:57:23;12.20;99.90
10312;DHT22;5201;48.776;9.128;2022-11-11T15:59:49;12.30;99.90
10312;DHT22;5201;48.776;9.128;2022-11-11T16:02:20;12.30;99.90
10312;DHT22;5201;48.776;9.128;2022-11-11T16:04:56;12.40;99.90
10312;DHT22;5201;48.776;9.128;2022-11-11T16:07:40;12.20;99.90
10312;DHT22;5201;48.776;9.128;2022-11-11T16:10:20;12.00;99.90
10312;DHT22;5201;48.776;9.128;2022-11-11T16:13:00;11.80;99.90
10312;DHT22;5201;48.776;9.128;2022-11-11T16:15:47;12.10;99.90
10312;DHT22;5201;48.776;9.128;2022-11-11T16:18:23;12.30;99.90
10312;DHT22;5201;48.776;9.128;2022-11-11T16:20:51;12.40;99.90
10312;DHT22;5201;48.776;9.128;2022-11-11T16:23:19;12.30;99.90
10312;DHT22;5201;48.776;9.128;2022-11-11T16:25:47;12.20;99.90
10312;DHT22;5201;48.776;9.128;2022-11-11T16:28:13;12.20;99.90
10312;DHT22;5201;48.776;9.128;2022-11-11T16:30:39;11.80;99.90
10312;DHT22;5201;48.776;9.128;2022-11-11T16:33:38;11.70;99.90
10312;DHT22;5201;48.776;9.128;2022-11-11T16:36:07;11.80;99.90
10312;DHT22;5201;48.776;9.128;2022-11-11T16:38:33;12.00;99.90
10312;DHT22;5201;48.776;9.128;2022-11-11T16:41:00;12.10;99.90
10312;DHT22;5201;48.776;9.128;2022-11-11T16:43:31;12.20;99.90
10312;DHT22;5201;48.776;9.128;2022-11-11T16:46:05;12.00;99.90
10312;DHT22;5201;48.776;9.128;2022-11-11T16:51:17;12.00;99.90
10312;DHT22;5201;48.776;9.128;2022-11-11T16:54:05;11.80;99.90
10312;DHT22;5201;48.776;9.128;2022-11-11T16:56:33;11.80;99.90
10312;DHT22;5201;48.776;9.128;2022-11-11T16:59:11;11.70;99.90
10312;DHT22;5201;48.776;9.128;2022-11-11T17:01:42;11.50;99.90
10312;DHT22;5201;48.776;9.128;2022-11-11T17:04:09;11.50;99.90
10312;DHT22;5201;48.776;9.128;2022-11-11T17:06:49;11.60;99.90
10312;DHT22;5201;48.776;9.128;2022-11-11T17:11:58;11.90;99.90
10312;DHT22;5201;48.776;9.128;2022-11-11T17:14:25;11.80;99.90
10312;DHT22;5201;48.776;9.128;2022-11-11T17:16:51;11.90;99.90
10312;DHT22;5201;48.776;9.128;2022-11-11T17:19:17;11.90;99.90
10312;DHT22;5201;48.776;9.128;2022-11-11T17:21:43;11.60;99.90
10312;DHT22;5201;48.776;9.128;2022-11-11T17:24:08;11.70;99.90
10312;DHT22;5201;48.776;9.128;2022-11-11T17:26:34;11.80;99.90
10312;DHT22;5201;48.776;9.128;2022-11-11T17:28:59;12.00;99.90
10312;DHT22;5201;48.776;9.128;2022-11-11T17:31:25;12.00;99.90
10312;DHT22;5201;48.776;9.128;2022-11-11T17:33:51;11.80;99.90
10312;DHT22;5201;48.776;9.128;2022-11-11T17:36:16;11.60;99.90
10312;DHT22;5201;48.776;9.128;2022-11-11T17:38:42;11.50;99.90
10312;DHT22;5201;48.776;9.128;2022-11-11T17:41:12;11.40;99.90
10312;DHT22;5201;48.776;9.128;2022-11-11T17:43:38;11.50;99.90
10312;DHT22;5201;48.776;9.128;2022-11-11T17:46:04;11.40;99.90
10312;DHT22;5201;48.776;9.128;2022-11-11T17:48:29;11.40;99.90
10312;DHT22;5201;48.776;9.128;2022-11-11T17:50:55;11.40;99.90
10312;DHT22;5201;48.776;9.128;2022-11-11T17:53:21;11.30;99.90
10312;DHT22;5201;48.776;9.128;2022-11-11T17:55:46;11.50;99.90
10312;DHT22;5201;48.776;9.128;2022-11-11T17:58:12;11.10;99.90
10312;DHT22;5201;48.776;9.128;2022-11-11T18:00:38;11.20;99.90
10312;DHT22;5201;48.776;9.128;2022-11-11T18:03:05;11.30;99.90
10312;DHT22;5201;48.776;9.128;2022-11-11T18:05:34;12.20;99.90
10312;DHT22;5201;48.776;9.128;2022-11-11T18:08:00;11.50;99.90
10312;DHT22;5201;48.776;9.128;2022-11-11T18:10:26;11.50;99.90
10312;DHT22;5201;48.776;9.128;2022-11-11T18:12:52;11.50;99.90
10312;DHT22;5201;48.776;9.128;2022-11-11T18:15:18;11.60;99.90
10312;DHT22;5201;48.776;9.128;2022-11-11T18:17:44;11.60;99.90
10312;DHT22;5201;48.776;9.128;2022-11-11T18:20:11;11.40;99.90
10312;DHT22;5201;48.776;9.128;2022-11-11T18:22:37;11.40;99.90
10312;DHT22;5201;48.776;9.128;2022-11-11T18:25:03;11.50;99.90
10312;DHT22;5201;48.776;9.128;2022-11-11T18:27:28;11.30;99.90
10312;DHT22;5201;48.776;9.128;2022-11-11T18:29:54;11.10;99.90
10312;DHT22;5201;48.776;9.128;2022-11-11T18:32:19;11.00;99.90